sensor_id;sensor_type;location;lat;lon;timestamp;temperature;humidity
1225;DHT22;602;48.000;7.840;2023-07-16T00:00:13;21.50;99.90
1225;DHT22;602;48.000;7.840;2023-07-16T00:02:40;21.50;99.90
1225;DHT22;602;48.000;7.840;2023-07-16T00:05:08;21.50;99.90
1225;DHT22;602;48.000;7.840;2023-07-16T00:07:35;21.40;99.90
1225;DHT22;602;48.000;7.840;2023-07-16T00:10:02;21.40;99.90
1225;DHT22;602;48.000;7.840;2023-07-16T00:12:29;21.30;99.90
1225;DHT22;602;48.000;7.840;2023-07-16T00:14:56;21.20;99.90
1225;DHT22;602;48.000;7.840;2023-07-16T00:17:24;21.10;99.90
1225;DHT22;602;48.000;7.840;2023-07-16T00:19:51;20.90;99.90
1225;DHT22;602;48.000;7.840;2023-07-16T00:22:18;20.80;99.90
1225;DHT22;602;48.000;7.840;2023-07-16T00:24:45;20.70;99.90
1225;DHT22;602;48.000;7.840;2023-07-16T00:27:12;20.60;99.90
1225;DHT22;602;48.000;7.840;2023-07-16T00:29:39;20.50;99.90
1225;DHT22;602;48.000;7.840;2023-07-16T00:32:06;20.40;99.90
1225;DHT22;602;48.000;7.840;2023-07-16T00:34:34;20.40;99.90
1225;DHT22;602;48.000;7.840;2023-07-16T00:37:01;20.30;99.90
1225;DHT22;602;48.000;7.840;2023-07-16T00:39:28;20.40;99.90
1225;DHT22;602;48.000;7.840;2023-07-16T00:41:55;20.40;99.90
1225;DHT22;602;48.000;7.840;2023-07-16T00:44:22;20.30;99.90
1225;DHT22;602;48.000;7.840;2023-07-16T00:46:49;20.20;99.90
1225;DHT22;602;48.000;7.840;2023-07-16T00:49:16;20.20;99.90
1225;DHT22;602;48.000;7.840;2023-07-16T00:51:46;20.20;99.90
1225;DHT22;602;48.000;7.840;2023-07-16T00:54:13;20.10;99.90
1225;DHT22;602;48.000;7.840;2023-07-16T00:56:40;19.90;99.90
1225;DHT22;602;48.000;7.840;2023-07-16T00:59:07;19.80;99.90
1225;DHT22;602;48.000;7.840;2023-07-16T01:01:34;19.80;99.90
1225;DHT22;602;48.000;7.840;2023-07-16T01:04:01;19.70;99.90
1225;DHT22;602;48.000;7.840;2023-07-16T01:06:34;19.70;99.90
1225;DHT22;602;48.000;7.840;2023-07-16T01:09:08;19.60;99.90
1225;DHT22;602;48.000;7.840;2023-07-16T01:11:40;19.60;99.90
1225;DHT22;602;48.000;7.840;2023-07-16T01:14:10;19.60;99.90
1225;DHT22;602;48.000;7.840;2023-07-16T01:16:41;19.60;99.90
1225;DHT22;602;48.000;7.840;2023-07-16T01:19:11;19.70;99.90
1225;DHT22;602;48.000;7.840;2023-07-16T01:21:44;19.70;99.90
1225;DHT22;602;48.000;7.840;2023-07-16T01:24:44;19.70;99.90
1225;DHT22;602;48.000;7.840;2023-07-16T01:27:34;19.70;99.90
1225;DHT22;602;48.000;7.840;2023-07-16T01:30:11;19.70;99.90
1225;DHT22;602;48.000;7.840;2023-07-16T01:32:42;19.60;99.90
1225;DHT22;602;48.000;7.840;2023-07-16T01:35:09;19.60;99.90
1225;DHT22;602;48.000;7.840;2023-07-16T01:37:41;19.60;99.90
1225;DHT22;602;48.000;7.840;2023-07-16T01:40:08;19.50;99.90
1225;DHT22;602;48.000;7.840;2023-07-16T01:42:35;19.50;99.90
1225;DHT22;602;48.000;7.840;2023-07-16T01:45:02;19.40;99.90
1225;DHT22;602;48.000;7.840;2023-07-16T01:47:39;19.40;99.90
1225;DHT22;602;48.000;7.840;2023-07-16T01:50:07;19.40;99.90
1225;DHT22;602;48.000;7.840;2023-07-16T01:52:34;19.30;99.90
1225;DHT22;602;48.000;7.840;2023-07-16T01:55:01;19.20;99.90
1225;DHT22;602;48.000;7.840;2023-07-16T01:57:28;19.10;99.90
1225;DHT22;602;48.000;7.840;2023-07-16T01:59:55;19.10;99.90
1225;DHT22;602;48.000;7.840;2023-07-16T02:02:23;19.10;99.90
1225;DHT22;602;48.000;7.840;2023-07-16T02:04:51;19.00;99.90
1225;DHT22;602;48.000;7.840;2023-07-16T02:07:18;19.00;99.90
1225;DHT22;602;48.000;7.840;2023-07-16T02:09:44;19.00;99.90
1225;DHT22;602;48.000;7.840;2023-07-16T02:12:11;18.90;99.90
1225;DHT22;602;48.000;7.840;2023-07-16T02:14:38;18.90;99.90
1225;DHT22;602;48.000;7.840;2023-07-16T02:17:05;18.90;99.90
1225;DHT22;602;48.000;7.840;2023-07-16T02:19:32;18.90;99.90
1225;DHT22;602;48.000;7.840;2023-07-16T02:22:00;18.90;99.90
1225;DHT22;602;48.000;7.840;2023-07-16T02:24:27;18.90;99.90
1225;DHT22;602;48.000;7.840;2023-07-16T02:26:54;18.90;99.90
1225;DHT22;602;48.000;7.840;2023-07-16T02:29:21;18.90;99.90
1225;DHT22;602;48.000;7.840;2023-07-16T02:31:48;18.90;99.90
1225;DHT22;602;48.000;7.840;2023-07-16T02:34:15;18.90;99.90
1225;DHT22;602;48.000;7.840;2023-07-16T02:36:41;19.00;99.90
1225;DHT22;602;48.000;7.840;2023-07-16T02:39:10;18.90;99.90
1225;DHT22;602;48.000;7.840;2023-07-16T02:41:36;18.90;99.90
1225;DHT22;602;48.000;7.840;2023-07-16T02:44:05;18.90;99.90
1225;DHT22;602;48.000;7.840;2023-07-16T02:46:32;18.90;99.90
1225;DHT22;602;48.000;7.840;2023-07-16T02:48:59;18.80;99.90
1225;DHT22;602;48.000;7.840;2023-07-16T02:51:26;18.80;99.90
1225;DHT22;602;48.000;7.840;2023-07-16T02:53:52;18.80;99.90
1225;DHT22;602;48.000;7.840;2023-07-16T02:56:21;18.80;99.90
1225;DHT22;602;48.000;7.840;2023-07-16T02:58:47;18.80;99.90
1225;DHT22;602;48.000;7.840;2023-07-16T03:01:15;18.80;99.90
1225;DHT22;602;48.000;7.840;2023-07-16T03:03:41;18.80;99.90
1225;DHT22;602;48.000;7.840;2023-07-16T03:06:08;18.90;99.90
1225;DHT22;602;48.000;7.840;2023-07-16T03:08:35;18.90;99.90
1225;DHT22;602;48.000;7.840;2023-07-16T03:11:05;18.90;99.90
1225;DHT22;602;48.000;7.840;2023-07-16T03:13:42;18.90;99.90
1225;DHT22;602;48.000;7.840;2023-07-16T03:16:09;18.80;99.90
1225;DHT22;602;48.000;7.840;2023-07-16T03:18:36;18.80;99.90
1225;DHT22;602;48.000;7.840;2023-07-16T03:21:03;18.80;99.90
1225;DHT22;602;48.000;7.840;2023-07-16T03:23:30;18.80;99.90
1225;DHT22;602;48.000;7.840;2023-07-16T03:25:57;18.70;99.90
1225;DHT22;602;48.000;7.840;2023-07-16T03:28:24;18.80;99.90
1225;DHT22;602;48.000;7.840;2023-07-16T03:30:52;18.80;99.90
1225;DHT22;602;48.000;7.840;2023-07-16T03:33:19;18.80;99.90
1225;DHT22;602;48.000;7.840;2023-07-16T03:35:48;18.80;99.90
1225;DHT22;602;48.000;7.840;2023-07-16T03:38:15;18.80;99.90
1225;DHT22;602;48.000;7.840;2023-07-16T03:40:46;18.90;99.90
1225;DHT22;602;48.000;7.840;2023-07-16T03:43:13;18.90;99.90
1225;DHT22;602;48.000;7.840;2023-07-16T03:45:40;18.90;99.90
1225;DHT22;602;48.000;7.840;2023-07-16T03:48:08;18.80;99.90
1225;DHT22;602;48.000;7.840;2023-07-16T03:50:35;18.70;99.90
1225;DHT22;602;48.000;7.840;2023-07-16T03:53:02;18.70;99.90
1225;DHT22;602;48.000;7.840;2023-07-16T03:55:29;18.80;99.90
1225;DHT22;602;48.000;7.840;2023-07-16T03:57:56;18.70;99.90
1225;DHT22;602;48.000;7.840;2023-07-16T04:00:23;18.70;99.90
1225;DHT22;602;48.000;7.840;2023-07-16T04:02:50;18.70;99.90
1225;DHT22;602;48.000;7.840;2023-07-16T04:05:19;18.60;99.90
1225;DHT22;602;48.000;7.840;2023-07-16T04:07:45;18.70;99.90
1225;DHT22;602;48.000;7.840;2023-07-16T04:10:12;18.60;99.90
1225;DHT22;602;48.000;7.840;2023-07-16T04:12:39;18.60;99.90
1225;DHT22;602;48.000;7.840;2023-07-16T04:15:08;18.60;99.90
1225;DHT22;602;48.000;7.840;2023-07-16T04:17:36;18.60;99.90
1225;DHT22;602;48.000;7.840;2023-07-16T04:20:03;18.60;99.90
1225;DHT22;602;48.000;7.840;2023-07-16T04:22:33;18.60;99.90
1225;DHT22;602;48.000;7.840;2023-07-16T04:25:00;18.60;99.90
1225;DHT22;602;48.000;7.840;2023-07-16T04:27:27;18.60;99.90
1225;DHT22;602;48.000;7.840;2023-07-16T04:29:54;18.60;99.90
1225;DHT22;602;48.000;7.840;2023-07-16T04:32:21;18.60;99.90
1225;DHT22;602;48.000;7.840;2023-07-16T04:34:48;18.60;99.90
1225;DHT22;602;48.000;7.840;2023-07-16T04:37:15;18.60;99.90
1225;DHT22;602;48.000;7.840;2023-07-16T04:39:43;18.70;99.90
1225;DHT22;602;48.000;7.840;2023-07-16T04:42:10;18.60;99.90
1225;DHT22;602;48.000;7.840;2023-07-16T04:44:37;18.60;99.90
1225;DHT22;602;48.000;7.840;2023-07-16T04:47:04;18.60;99.90
1225;DHT22;602;48.000;7.840;2023-07-16T04:49:33;18.60;99.90
1225;DHT22;602;48.000;7.840;2023-07-16T04:52:00;18.70;99.90
1225;DHT22;602;48.000;7.840;2023-07-16T04:54:26;18.80;99.90
1225;DHT22;602;48.000;7.840;2023-07-16T04:56:56;18.70;99.90
1225;DHT22;602;48.000;7.840;2023-07-16T04:59:27;18.80;99.90
1225;DHT22;602;48.000;7.840;2023-07-16T05:01:53;18.80;99.90
1225;DHT22;602;48.000;7.840;2023-07-16T05:04:20;18.90;99.90
1225;DHT22;602;48.000;7.840;2023-07-16T05:06:47;18.80;99.90
1225;DHT22;602;48.000;7.840;2023-07-16T05:09:14;18.80;99.90
1225;DHT22;602;48.000;7.840;2023-07-16T05:11:41;18.90;99.90
1225;DHT22;602;48.000;7.840;2023-07-16T05:14:09;18.90;99.90
1225;DHT22;602;48.000;7.840;2023-07-16T05:16:36;19.00;99.90
1225;DHT22;602;48.000;7.840;2023-07-16T05:19:03;18.90;99.90
1225;DHT22;602;48.000;7.840;2023-07-16T05:21:29;19.00;99.90
1225;DHT22;602;48.000;7.840;2023-07-16T05:23:56;18.90;99.90
1225;DHT22;602;48.000;7.840;2023-07-16T05:26:23;18.80;99.90
1225;DHT22;602;48.000;7.840;2023-07-16T05:28:50;18.80;99.90
1225;DHT22;602;48.000;7.840;2023-07-16T05:31:18;18.80;99.90
1225;DHT22;602;48.000;7.840;2023-07-16T05:33:45;18.70;99.90
1225;DHT22;602;48.000;7.840;2023-07-16T05:36:12;18.70;99.90
1225;DHT22;602;48.000;7.840;2023-07-16T05:38:38;18.80;99.90
1225;DHT22;602;48.000;7.840;2023-07-16T05:41:05;18.80;99.90
1225;DHT22;602;48.000;7.840;2023-07-16T05:43:32;18.90;99.90
1225;DHT22;602;48.000;7.840;2023-07-16T05:45:59;18.90;99.90
1225;DHT22;602;48.000;7.840;2023-07-16T05:48:27;18.90;99.90
1225;DHT22;602;48.000;7.840;2023-07-16T05:50:54;18.90;99.90
1225;DHT22;602;48.000;7.840;2023-07-16T05:53:21;19.00;99.90
1225;DHT22;602;48.000;7.840;2023-07-16T05:55:48;19.00;99.90
1225;DHT22;602;48.000;7.840;2023-07-16T05:58:16;19.00;99.90
1225;DHT22;602;48.000;7.840;2023-07-16T06:00:43;19.00;99.90
1225;DHT22;602;48.000;7.840;2023-07-16T06:03:10;19.00;99.90
1225;DHT22;602;48.000;7.840;2023-07-16T06:05:38;19.10;99.90
1225;DHT22;602;48.000;7.840;2023-07-16T06:08:05;19.10;99.90
1225;DHT22;602;48.000;7.840;2023-07-16T06:10:33;19.10;99.90
1225;DHT22;602;48.000;7.840;2023-07-16T06:13:01;19.20;99.90
1225;DHT22;602;48.000;7.840;2023-07-16T06:15:27;19.20;99.90
1225;DHT22;602;48.000;7.840;2023-07-16T06:17:54;19.20;99.90
1225;DHT22;602;48.000;7.840;2023-07-16T06:20:21;19.20;99.90
1225;DHT22;602;48.000;7.840;2023-07-16T06:22:49;19.30;99.90
1225;DHT22;602;48.000;7.840;2023-07-16T06:25:16;19.30;99.90
1225;DHT22;602;48.000;7.840;2023-07-16T06:27:43;19.40;99.90
1225;DHT22;602;48.000;7.840;2023-07-16T06:30:10;19.40;99.90
1225;DHT22;602;48.000;7.840;2023-07-16T06:32:37;19.50;99.90
1225;DHT22;602;48.000;7.840;2023-07-16T06:35:04;19.50;99.90
1225;DHT22;602;48.000;7.840;2023-07-16T06:37:31;19.60;99.90
1225;DHT22;602;48.000;7.840;2023-07-16T06:39:59;19.70;99.90
1225;DHT22;602;48.000;7.840;2023-07-16T06:42:26;19.60;99.90
1225;DHT22;602;48.000;7.840;2023-07-16T06:44:53;19.70;99.90
1225;DHT22;602;48.000;7.840;2023-07-16T06:47:19;19.80;99.90
1225;DHT22;602;48.000;7.840;2023-07-16T06:49:46;19.90;99.90
1225;DHT22;602;48.000;7.840;2023-07-16T06:52:20;20.00;99.90
1225;DHT22;602;48.000;7.840;2023-07-16T06:54:47;20.00;99.90
1225;DHT22;602;48.000;7.840;2023-07-16T06:57:15;20.10;99.90
1225;DHT22;602;48.000;7.840;2023-07-16T06:59:42;20.20;99.90
1225;DHT22;602;48.000;7.840;2023-07-16T07:02:09;20.30;99.90
1225;DHT22;602;48.000;7.840;2023-07-16T07:04:36;20.40;99.90
1225;DHT22;602;48.000;7.840;2023-07-16T07:07:03;20.50;99.90
1225;DHT22;602;48.000;7.840;2023-07-16T07:09:30;20.60;99.90
1225;DHT22;602;48.000;7.840;2023-07-16T07:11:57;20.80;99.90
1225;DHT22;602;48.000;7.840;2023-07-16T07:14:26;20.90;99.90
1225;DHT22;602;48.000;7.840;2023-07-16T07:16:53;21.10;99.90
1225;DHT22;602;48.000;7.840;2023-07-16T07:19:20;21.10;99.90
1225;DHT22;602;48.000;7.840;2023-07-16T07:21:47;21.30;99.90
1225;DHT22;602;48.000;7.840;2023-07-16T07:24:13;21.40;99.90
1225;DHT22;602;48.000;7.840;2023-07-16T07:26:40;21.50;99.90
1225;DHT22;602;48.000;7.840;2023-07-16T07:29:07;21.60;99.90
1225;DHT22;602;48.000;7.840;2023-07-16T07:31:35;21.70;99.90
1225;DHT22;602;48.000;7.840;2023-07-16T07:34:02;21.90;99.90
1225;DHT22;602;48.000;7.840;2023-07-16T07:36:29;22.00;99.90
1225;DHT22;602;48.000;7.840;2023-07-16T07:38:56;22.10;99.90
1225;DHT22;602;48.000;7.840;2023-07-16T07:41:23;22.10;99.90
1225;DHT22;602;48.000;7.840;2023-07-16T07:43:50;22.20;99.90
1225;DHT22;602;48.000;7.840;2023-07-16T07:46:17;22.40;99.90
1225;DHT22;602;48.000;7.840;2023-07-16T07:48:45;22.50;99.90
1225;DHT22;602;48.000;7.840;2023-07-16T07:51:12;22.80;99.90
1225;DHT22;602;48.000;7.840;2023-07-16T07:53:39;23.00;99.90
1225;DHT22;602;48.000;7.840;2023-07-16T07:56:06;23.10;99.90
1225;DHT22;602;48.000;7.840;2023-07-16T07:58:33;23.00;99.90
1225;DHT22;602;48.000;7.840;2023-07-16T08:01:04;22.90;99.90
1225;DHT22;602;48.000;7.840;2023-07-16T08:03:31;23.10;99.90
1225;DHT22;602;48.000;7.840;2023-07-16T08:05:59;23.40;99.90
1225;DHT22;602;48.000;7.840;2023-07-16T08:08:26;23.60;99.90
1225;DHT22;602;48.000;7.840;2023-07-16T08:10:53;23.90;99.90
1225;DHT22;602;48.000;7.840;2023-07-16T08:13:20;24.10;99.90
1225;DHT22;602;48.000;7.840;2023-07-16T08:15:47;24.10;99.90
1225;DHT22;602;48.000;7.840;2023-07-16T08:18:14;24.30;99.90
1225;DHT22;602;48.000;7.840;2023-07-16T08:20:41;24.40;99.90
1225;DHT22;602;48.000;7.840;2023-07-16T08:23:09;24.50;99.90
1225;DHT22;602;48.000;7.840;2023-07-16T08:25:36;24.80;99.90
1225;DHT22;602;48.000;7.840;2023-07-16T08:28:03;24.80;99.90
1225;DHT22;602;48.000;7.840;2023-07-16T08:30:32;24.70;99.90
1225;DHT22;602;48.000;7.840;2023-07-16T08:32:58;24.70;99.90
1225;DHT22;602;48.000;7.840;2023-07-16T08:35:25;24.70;99.90
1225;DHT22;602;48.000;7.840;2023-07-16T08:37:52;24.70;99.90
1225;DHT22;602;48.000;7.840;2023-07-16T08:40:20;24.70;99.90
1225;DHT22;602;48.000;7.840;2023-07-16T08:42:48;24.80;99.90
1225;DHT22;602;48.000;7.840;2023-07-16T08:45:16;24.80;99.90
1225;DHT22;602;48.000;7.840;2023-07-16T08:47:43;25.10;99.90
1225;DHT22;602;48.000;7.840;2023-07-16T08:50:10;25.20;99.90
1225;DHT22;602;48.000;7.840;2023-07-16T08:52:38;25.40;99.90
1225;DHT22;602;48.000;7.840;2023-07-16T08:55:07;25.60;99.90
1225;DHT22;602;48.000;7.840;2023-07-16T08:57:36;25.90;99.90
1225;DHT22;602;48.000;7.840;2023-07-16T09:00:03;26.10;99.90
1225;DHT22;602;48.000;7.840;2023-07-16T09:02:31;26.10;99.90
1225;DHT22;602;48.000;7.840;2023-07-16T09:04:59;26.10;99.90
1225;DHT22;602;48.000;7.840;2023-07-16T09:07:26;26.30;99.90
1225;DHT22;602;48.000;7.840;2023-07-16T09:09:56;26.40;99.90
1225;DHT22;602;48.000;7.840;2023-07-16T09:12:27;26.40;99.90
1225;DHT22;602;48.000;7.840;2023-07-16T09:14:56;26.50;99.90
1225;DHT22;602;48.000;7.840;2023-07-16T09:17:24;26.60;99.90
1225;DHT22;602;48.000;7.840;2023-07-16T09:19:51;26.80;99.90
1225;DHT22;602;48.000;7.840;2023-07-16T09:22:19;26.80;99.90
1225;DHT22;602;48.000;7.840;2023-07-16T09:24:46;27.00;99.90
1225;DHT22;602;48.000;7.840;2023-07-16T09:27:14;27.20;99.90
1225;DHT22;602;48.000;7.840;2023-07-16T09:29:41;27.30;99.90
1225;DHT22;602;48.000;7.840;2023-07-16T09:32:09;27.30;99.90
1225;DHT22;602;48.000;7.840;2023-07-16T09:34:36;27.30;99.90
1225;DHT22;602;48.000;7.840;2023-07-16T09:37:05;27.40;99.90
1225;DHT22;602;48.000;7.840;2023-07-16T09:39:32;27.50;99.90
1225;DHT22;602;48.000;7.840;2023-07-16T09:42:00;27.40;99.90
1225;DHT22;602;48.000;7.840;2023-07-16T09:44:29;27.30;99.90
1225;DHT22;602;48.000;7.840;2023-07-16T09:46:56;27.30;99.90
1225;DHT22;602;48.000;7.840;2023-07-16T09:49:28;27.30;99.90
1225;DHT22;602;48.000;7.840;2023-07-16T09:51:57;27.20;99.90
1225;DHT22;602;48.000;7.840;2023-07-16T09:54:25;27.20;99.90
1225;DHT22;602;48.000;7.840;2023-07-16T09:56:55;27.10;99.90
1225;DHT22;602;48.000;7.840;2023-07-16T09:59:26;27.00;99.90
1225;DHT22;602;48.000;7.840;2023-07-16T10:01:55;26.80;99.90
1225;DHT22;602;48.000;7.840;2023-07-16T10:04:22;26.60;99.90
1225;DHT22;602;48.000;7.840;2023-07-16T10:06:55;26.40;99.90
1225;DHT22;602;48.000;7.840;2023-07-16T10:09:35;26.30;99.90
1225;DHT22;602;48.000;7.840;2023-07-16T10:12:23;26.10;99.90
1225;DHT22;602;48.000;7.840;2023-07-16T10:14:52;26.10;99.90
1225;DHT22;602;48.000;7.840;2023-07-16T10:17:21;26.10;99.90
1225;DHT22;602;48.000;7.840;2023-07-16T10:19:55;26.20;99.90
1225;DHT22;602;48.000;7.840;2023-07-16T10:22:36;26.30;99.90
1225;DHT22;602;48.000;7.840;2023-07-16T10:25:09;26.40;99.90
1225;DHT22;602;48.000;7.840;2023-07-16T10:27:37;26.60;99.90
1225;DHT22;602;48.000;7.840;2023-07-16T10:30:05;26.60;99.90
1225;DHT22;602;48.000;7.840;2023-07-16T10:32:36;26.60;99.90
1225;DHT22;602;48.000;7.840;2023-07-16T10:35:04;26.90;99.90
1225;DHT22;602;48.000;7.840;2023-07-16T10:37:33;26.80;99.90
1225;DHT22;602;48.000;7.840;2023-07-16T10:40:00;26.80;99.90
1225;DHT22;602;48.000;7.840;2023-07-16T10:42:28;26.90;99.90
1225;DHT22;602;48.000;7.840;2023-07-16T10:44:59;26.90;99.90
1225;DHT22;602;48.000;7.840;2023-07-16T10:47:30;26.80;99.90
1225;DHT22;602;48.000;7.840;2023-07-16T10:49:57;26.90;99.90
1225;DHT22;602;48.000;7.840;2023-07-16T10:52:25;27.10;99.90
1225;DHT22;602;48.000;7.840;2023-07-16T10:54:54;27.40;99.90
1225;DHT22;602;48.000;7.840;2023-07-16T10:57:23;27.60;99.90
1225;DHT22;602;48.000;7.840;2023-07-16T10:59:51;27.90;99.90
1225;DHT22;602;48.000;7.840;2023-07-16T11:02:18;28.00;99.90
1225;DHT22;602;48.000;7.840;2023-07-16T11:04:46;28.20;99.90
1225;DHT22;602;48.000;7.840;2023-07-16T11:07:14;28.30;99.90
1225;DHT22;602;48.000;7.840;2023-07-16T11:09:41;28.40;99.90
1225;DHT22;602;48.000;7.840;2023-07-16T11:12:12;28.50;99.90
1225;DHT22;602;48.000;7.840;2023-07-16T11:14:42;28.50;99.90
1225;DHT22;602;48.000;7.840;2023-07-16T11:17:10;28.60;99.90
1225;DHT22;602;48.000;7.840;2023-07-16T11:19:38;28.70;99.90
1225;DHT22;602;48.000;7.840;2023-07-16T11:22:06;28.80;99.90
1225;DHT22;602;48.000;7.840;2023-07-16T11:24:38;28.90;99.90
1225;DHT22;602;48.000;7.840;2023-07-16T11:27:06;29.10;99.90
1225;DHT22;602;48.000;7.840;2023-07-16T11:29:40;29.10;99.90
1225;DHT22;602;48.000;7.840;2023-07-16T11:32:11;29.10;99.90
1225;DHT22;602;48.000;7.840;2023-07-16T11:34:38;29.40;99.90
1225;DHT22;602;48.000;7.840;2023-07-16T11:37:17;29.40;99.90
1225;DHT22;602;48.000;7.840;2023-07-16T11:39:46;29.30;99.90
1225;DHT22;602;48.000;7.840;2023-07-16T11:42:14;29.40;99.90
1225;DHT22;602;48.000;7.840;2023-07-16T11:44:42;29.40;99.90
1225;DHT22;602;48.000;7.840;2023-07-16T11:47:09;29.50;99.90
1225;DHT22;602;48.000;7.840;2023-07-16T11:49:36;29.50;99.90
1225;DHT22;602;48.000;7.840;2023-07-16T11:52:04;29.60;99.90
1225;DHT22;602;48.000;7.840;2023-07-16T11:54:31;29.70;99.90
1225;DHT22;602;48.000;7.840;2023-07-16T11:56:57;29.60;99.90
1225;DHT22;602;48.000;7.840;2023-07-16T11:59:24;29.40;99.90
1225;DHT22;602;48.000;7.840;2023-07-16T12:01:53;29.50;99.90
1225;DHT22;602;48.000;7.840;2023-07-16T12:04:20;29.60;99.90
1225;DHT22;602;48.000;7.840;2023-07-16T12:06:47;29.70;99.90
1225;DHT22;602;48.000;7.840;2023-07-16T12:09:14;29.90;99.90
1225;DHT22;602;48.000;7.840;2023-07-16T12:11:41;29.90;99.90
1225;DHT22;602;48.000;7.840;2023-07-16T12:14:08;29.90;99.90
1225;DHT22;602;48.000;7.840;2023-07-16T12:16:35;30.20;99.90
1225;DHT22;602;48.000;7.840;2023-07-16T12:19:04;30.10;99.90
1225;DHT22;602;48.000;7.840;2023-07-16T12:21:31;30.50;99.90
1225;DHT22;602;48.000;7.840;2023-07-16T12:23:58;30.40;99.90
1225;DHT22;602;48.000;7.840;2023-07-16T12:26:25;30.40;99.90
1225;DHT22;602;48.000;7.840;2023-07-16T12:28:52;30.50;99.90
1225;DHT22;602;48.000;7.840;2023-07-16T12:31:19;30.40;99.90
1225;DHT22;602;48.000;7.840;2023-07-16T12:33:47;30.50;99.90
1225;DHT22;602;48.000;7.840;2023-07-16T12:36:16;30.40;99.90
1225;DHT22;602;48.000;7.840;2023-07-16T12:38:43;30.30;99.90
1225;DHT22;602;48.000;7.840;2023-07-16T12:41:09;30.40;99.90
1225;DHT22;602;48.000;7.840;2023-07-16T12:43:36;30.60;99.90
1225;DHT22;602;48.000;7.840;2023-07-16T12:46:04;30.70;99.90
1225;DHT22;602;48.000;7.840;2023-07-16T12:48:31;30.90;99.90
1225;DHT22;602;48.000;7.840;2023-07-16T12:50:58;31.10;99.90
1225;DHT22;602;48.000;7.840;2023-07-16T12:53:26;30.90;99.90
1225;DHT22;602;48.000;7.840;2023-07-16T12:55:53;31.00;99.90
1225;DHT22;602;48.000;7.840;2023-07-16T12:58:21;30.90;99.90
1225;DHT22;602;48.000;7.840;2023-07-16T13:00:48;30.80;99.90
1225;DHT22;602;48.000;7.840;2023-07-16T13:03:14;31.00;99.90
1225;DHT22;602;48.000;7.840;2023-07-16T13:05:42;31.10;99.90
1225;DHT22;602;48.000;7.840;2023-07-16T13:08:10;31.20;99.90
1225;DHT22;602;48.000;7.840;2023-07-16T13:10:39;31.20;99.90
1225;DHT22;602;48.000;7.840;2023-07-16T13:13:06;31.10;99.90
1225;DHT22;602;48.000;7.840;2023-07-16T13:15:33;31.10;99.90
1225;DHT22;602;48.000;7.840;2023-07-16T13:18:01;30.80;99.90
1225;DHT22;602;48.000;7.840;2023-07-16T13:20:28;30.70;99.90
1225;DHT22;602;48.000;7.840;2023-07-16T13:22:55;30.50;99.90
1225;DHT22;602;48.000;7.840;2023-07-16T13:25:23;30.50;99.90
1225;DHT22;602;48.000;7.840;2023-07-16T13:27:51;30.40;99.90
1225;DHT22;602;48.000;7.840;2023-07-16T13:30:18;30.30;99.90
1225;DHT22;602;48.000;7.840;2023-07-16T13:32:45;30.30;99.90
1225;DHT22;602;48.000;7.840;2023-07-16T13:35:14;30.30;99.90
1225;DHT22;602;48.000;7.840;2023-07-16T13:37:42;30.30;99.90
1225;DHT22;602;48.000;7.840;2023-07-16T13:40:12;30.20;99.90
1225;DHT22;602;48.000;7.840;2023-07-16T13:42:39;30.20;99.90
1225;DHT22;602;48.000;7.840;2023-07-16T13:45:08;30.00;99.90
1225;DHT22;602;48.000;7.840;2023-07-16T13:47:35;30.00;99.90
1225;DHT22;602;48.000;7.840;2023-07-16T13:50:02;29.90;99.90
1225;DHT22;602;48.000;7.840;2023-07-16T13:52:29;29.70;99.90
1225;DHT22;602;48.000;7.840;2023-07-16T13:54:56;29.70;99.90
1225;DHT22;602;48.000;7.840;2023-07-16T13:57:23;29.70;99.90
1225;DHT22;602;48.000;7.840;2023-07-16T13:59:50;29.40;99.90
1225;DHT22;602;48.000;7.840;2023-07-16T14:02:18;29.40;99.90
1225;DHT22;602;48.000;7.840;2023-07-16T14:04:46;29.40;99.90
1225;DHT22;602;48.000;7.840;2023-07-16T14:07:12;29.20;99.90
1225;DHT22;602;48.000;7.840;2023-07-16T14:09:39;29.10;99.90
1225;DHT22;602;48.000;7.840;2023-07-16T14:12:07;28.90;99.90
1225;DHT22;602;48.000;7.840;2023-07-16T14:14:33;28.90;99.90
1225;DHT22;602;48.000;7.840;2023-07-16T14:17:01;28.80;99.90
1225;DHT22;602;48.000;7.840;2023-07-16T14:19:29;28.80;99.90
1225;DHT22;602;48.000;7.840;2023-07-16T14:21:56;28.70;99.90
1225;DHT22;602;48.000;7.840;2023-07-16T14:24:23;28.50;99.90
1225;DHT22;602;48.000;7.840;2023-07-16T14:26:50;28.50;99.90
1225;DHT22;602;48.000;7.840;2023-07-16T14:29:17;28.40;99.90
1225;DHT22;602;48.000;7.840;2023-07-16T14:31:44;28.40;99.90
1225;DHT22;602;48.000;7.840;2023-07-16T14:34:11;28.40;99.90
1225;DHT22;602;48.000;7.840;2023-07-16T14:36:40;28.40;99.90
1225;DHT22;602;48.000;7.840;2023-07-16T14:39:07;28.50;99.90
1225;DHT22;602;48.000;7.840;2023-07-16T14:41:34;28.50;99.90
1225;DHT22;602;48.000;7.840;2023-07-16T14:44:01;28.50;99.90
1225;DHT22;602;48.000;7.840;2023-07-16T14:46:28;28.30;99.90
1225;DHT22;602;48.000;7.840;2023-07-16T14:48:55;28.00;99.90
1225;DHT22;602;48.000;7.840;2023-07-16T14:51:24;28.10;99.90
1225;DHT22;602;48.000;7.840;2023-07-16T14:53:52;28.10;99.90
1225;DHT22;602;48.000;7.840;2023-07-16T14:56:19;28.10;99.90
1225;DHT22;602;48.000;7.840;2023-07-16T14:58:46;28.10;99.90
1225;DHT22;602;48.000;7.840;2023-07-16T15:01:13;28.00;99.20
1225;DHT22;602;48.000;7.840;2023-07-16T15:03:40;27.90;98.20
1225;DHT22;602;48.000;7.840;2023-07-16T15:06:07;27.90;99.10
1225;DHT22;602;48.000;7.840;2023-07-16T15:08:35;27.90;99.90
1225;DHT22;602;48.000;7.840;2023-07-16T15:11:03;27.90;99.90
1225;DHT22;602;48.000;7.840;2023-07-16T15:13:30;27.90;99.90
1225;DHT22;602;48.000;7.840;2023-07-16T15:15:57;27.90;99.90
1225;DHT22;602;48.000;7.840;2023-07-16T15:18:25;27.90;99.90
1225;DHT22;602;48.000;7.840;2023-07-16T15:20:56;27.90;99.90
1225;DHT22;602;48.000;7.840;2023-07-16T15:23:24;27.90;99.90
1225;DHT22;602;48.000;7.840;2023-07-16T15:25:51;27.80;99.90
1225;DHT22;602;48.000;7.840;2023-07-16T15:28:19;27.90;99.90
1225;DHT22;602;48.000;7.840;2023-07-16T15:30:46;27.90;99.90
1225;DHT22;602;48.000;7.840;2023-07-16T15:33:13;27.90;99.90
1225;DHT22;602;48.000;7.840;2023-07-16T15:35:40;27.90;99.90
1225;DHT22;602;48.000;7.840;2023-07-16T15:38:07;27.80;99.90
1225;DHT22;602;48.000;7.840;2023-07-16T15:40:34;27.80;99.90
1225;DHT22;602;48.000;7.840;2023-07-16T15:43:01;27.70;99.90
1225;DHT22;602;48.000;7.840;2023-07-16T15:45:30;27.70;99.90
1225;DHT22;602;48.000;7.840;2023-07-16T15:47:57;27.70;99.90
1225;DHT22;602;48.000;7.840;2023-07-16T15:50:25;27.70;99.90
1225;DHT22;602;48.000;7.840;2023-07-16T15:52:53;27.70;99.90
1225;DHT22;602;48.000;7.840;2023-07-16T15:55:20;27.80;99.90
1225;DHT22;602;48.000;7.840;2023-07-16T15:57:48;27.60;99.90
1225;DHT22;602;48.000;7.840;2023-07-16T16:00:15;27.50;99.90
1225;DHT22;602;48.000;7.840;2023-07-16T16:02:44;27.60;99.90
1225;DHT22;602;48.000;7.840;2023-07-16T16:05:12;27.50;99.90
1225;DHT22;602;48.000;7.840;2023-07-16T16:07:42;27.50;99.90
1225;DHT22;602;48.000;7.840;2023-07-16T16:10:09;27.50;99.90
1225;DHT22;602;48.000;7.840;2023-07-16T16:12:36;27.50;99.90
1225;DHT22;602;48.000;7.840;2023-07-16T16:15:04;27.40;99.90
1225;DHT22;602;48.000;7.840;2023-07-16T16:17:31;27.40;99.90
1225;DHT22;602;48.000;7.840;2023-07-16T16:19:59;27.40;99.90